Aeroporto :
LOGIN :

Iscrizione | Disclaimer

   EN    FR    IT 

 










Sommario :    VFR   VFR Marginale   IFR   IFR Intensivo   IFR Molto Intensivo
Visibilità : 
Base nubi : 
>= 8 km
>= 3000ft
5 / 8 km
1000 / 3000 ft
1500m / 5 km
500 / 1000 ft
800 / 1500m
200 / 500 ft
< 800m
< 200 ft
Simboli :   Temporali  Nebbia  Neve Forte  Precipitazioni Forti  Vento > 20 kt
SIGMETs :   Varie  Temporali  Ghiacco  Turbolenza  Onda orograficha  Ceneri Vulcaniche






- Altitudine del aeroporto : 256 ft
- Codice IATA : CFR


LFRK - Caen

ULTIMO METAR :
  • 260500Z AUTO 21005KT 9999 BKN017 BKN023 OVC033 14/13 Q1012

METARs OBSOLETI :
  • 260430Z AUTO 20005KT 9999 OVC021 13/13 Q1012
  • 260400Z AUTO 20005KT 9999 BKN023 BKN070 13/12 Q1011
  • 260330Z AUTO 18003KT CAVOK 13/12 Q1011
  • 260300Z AUTO 17004KT CAVOK 14/13 Q1012
  • 260230Z AUTO 16006KT CAVOK 14/13 Q1012
  • 260200Z AUTO 20003KT CAVOK 14/13 Q1012
  • 260130Z AUTO 15004KT 110V180 9999 FEW039/// SCT046/// OVC060/// ///TCU 14/13 Q1012
  • 260100Z AUTO 15003KT 9999 -RA FEW035/// BKN046/// BKN054/// ///TCU 14/13 Q1012
  • 260030Z AUTO 17004KT 9999 FEW036/// OVC066/// ///TCU 14/13 Q1012

Previsioni scadute.
Met : +33 2 31 26 68 11



MetMap, La meteo Aeronautica in un colpo d'occhio ! - Copyright ORBIFLY Dicembre 2007 - Disclaimer

ORBIFLY MET'MAP TEAM :

Programmazione e sviluppo : Alexandra Zaïnal
Concezione : Baudouin d'Aumeries
Supporto tecnico e logistico : Manuel Goepfert
Aiuto : Marc-Olivier Méhu
Aiuto per la traduzione : Arnaldo La Scala




FONTI E CREDITI :

   NOAA